sensor_id;sensor_type;location;lat;lon;timestamp;temperature;humidity
31967;DHT22;18496;52.042;6.812;2023-04-25T00:01:41;9.60;99.90
31967;DHT22;18496;52.042;6.812;2023-04-25T00:03:45;9.60;99.90
31967;DHT22;18496;52.042;6.812;2023-04-25T00:05:49;9.60;99.90
31967;DHT22;18496;52.042;6.812;2023-04-25T00:07:55;9.60;99.90
31967;DHT22;18496;52.042;6.812;2023-04-25T00:09:59;9.60;99.90
31967;DHT22;18496;52.042;6.812;2023-04-25T00:12:03;9.60;99.90
31967;DHT22;18496;52.042;6.812;2023-04-25T00:14:06;9.60;99.90
31967;DHT22;18496;52.042;6.812;2023-04-25T00:16:10;9.60;99.90
31967;DHT22;18496;52.042;6.812;2023-04-25T00:18:15;9.60;99.90
31967;DHT22;18496;52.042;6.812;2023-04-25T00:20:18;9.70;99.90
31967;DHT22;18496;52.042;6.812;2023-04-25T00:22:22;9.80;99.90
31967;DHT22;18496;52.042;6.812;2023-04-25T00:24:25;9.80;99.90
31967;DHT22;18496;52.042;6.812;2023-04-25T00:26:29;9.80;99.90
31967;DHT22;18496;52.042;6.812;2023-04-25T00:28:33;9.80;99.90
31967;DHT22;18496;52.042;6.812;2023-04-25T00:30:37;9.80;99.90
31967;DHT22;18496;52.042;6.812;2023-04-25T00:32:41;9.80;99.90
31967;DHT22;18496;52.042;6.812;2023-04-25T00:34:45;9.80;99.90
31967;DHT22;18496;52.042;6.812;2023-04-25T00:36:49;9.80;99.90
31967;DHT22;18496;52.042;6.812;2023-04-25T00:38:53;9.80;99.90
31967;DHT22;18496;52.042;6.812;2023-04-25T00:40:58;9.80;99.90
31967;DHT22;18496;52.042;6.812;2023-04-25T00:43:02;9.80;99.90
31967;DHT22;18496;52.042;6.812;2023-04-25T00:45:06;9.80;99.90
31967;DHT22;18496;52.042;6.812;2023-04-25T00:47:11;9.70;99.90
31967;DHT22;18496;52.042;6.812;2023-04-25T00:49:15;9.70;99.90
31967;DHT22;18496;52.042;6.812;2023-04-25T00:51:21;9.80;99.90
31967;DHT22;18496;52.042;6.812;2023-04-25T00:53:26;9.80;99.90
31967;DHT22;18496;52.042;6.812;2023-04-25T00:55:30;9.80;99.90
31967;DHT22;18496;52.042;6.812;2023-04-25T00:57:34;9.80;99.90
31967;DHT22;18496;52.042;6.812;2023-04-25T00:59:44;9.80;99.90
31967;DHT22;18496;52.042;6.812;2023-04-25T01:01:49;9.80;99.90
31967;DHT22;18496;52.042;6.812;2023-04-25T01:03:53;9.70;99.90
31967;DHT22;18496;52.042;6.812;2023-04-25T01:05:57;9.70;99.90
31967;DHT22;18496;52.042;6.812;2023-04-25T01:08:01;9.70;99.90
31967;DHT22;18496;52.042;6.812;2023-04-25T01:10:05;9.70;99.90
31967;DHT22;18496;52.042;6.812;2023-04-25T01:12:09;9.70;99.90
31967;DHT22;18496;52.042;6.812;2023-04-25T01:14:13;9.70;99.90
31967;DHT22;18496;52.042;6.812;2023-04-25T01:16:17;9.70;99.90
31967;DHT22;18496;52.042;6.812;2023-04-25T01:18:21;9.70;99.90
31967;DHT22;18496;52.042;6.812;2023-04-25T01:20:25;9.80;99.90
31967;DHT22;18496;52.042;6.812;2023-04-25T01:22:31;9.80;99.90
31967;DHT22;18496;52.042;6.812;2023-04-25T01:24:35;9.80;99.90
31967;DHT22;18496;52.042;6.812;2023-04-25T01:26:41;9.90;99.90
31967;DHT22;18496;52.042;6.812;2023-04-25T01:28:48;9.90;99.90
31967;DHT22;18496;52.042;6.812;2023-04-25T01:30:53;9.90;99.90
31967;DHT22;18496;52.042;6.812;2023-04-25T01:32:58;10.00;99.90
31967;DHT22;18496;52.042;6.812;2023-04-25T01:35:02;9.90;99.90
31967;DHT22;18496;52.042;6.812;2023-04-25T01:37:06;9.90;99.90
31967;DHT22;18496;52.042;6.812;2023-04-25T01:39:10;10.00;99.90
31967;DHT22;18496;52.042;6.812;2023-04-25T01:41:14;9.90;99.90
31967;DHT22;18496;52.042;6.812;2023-04-25T01:43:18;10.00;99.90
31967;DHT22;18496;52.042;6.812;2023-04-25T01:45:22;9.90;99.90
31967;DHT22;18496;52.042;6.812;2023-04-25T01:47:26;9.90;99.90
31967;DHT22;18496;52.042;6.812;2023-04-25T01:49:30;9.90;99.90
31967;DHT22;18496;52.042;6.812;2023-04-25T01:51:34;9.90;99.90
31967;DHT22;18496;52.042;6.812;2023-04-25T01:53:38;9.90;99.90
31967;DHT22;18496;52.042;6.812;2023-04-25T01:55:42;9.80;99.90
31967;DHT22;18496;52.042;6.812;2023-04-25T01:57:49;9.80;99.90
31967;DHT22;18496;52.042;6.812;2023-04-25T01:59:59;9.80;99.90
31967;DHT22;18496;52.042;6.812;2023-04-25T02:02:23;9.80;99.90
31967;DHT22;18496;52.042;6.812;2023-04-25T02:04:28;9.80;99.90
31967;DHT22;18496;52.042;6.812;2023-04-25T02:06:32;9.80;99.90
31967;DHT22;18496;52.042;6.812;2023-04-25T02:08:36;9.80;99.90
31967;DHT22;18496;52.042;6.812;2023-04-25T02:10:41;9.70;99.90
31967;DHT22;18496;52.042;6.812;2023-04-25T02:12:52;9.70;99.90
31967;DHT22;18496;52.042;6.812;2023-04-25T02:15:02;9.70;99.90
31967;DHT22;18496;52.042;6.812;2023-04-25T02:17:22;9.60;99.90
31967;DHT22;18496;52.042;6.812;2023-04-25T02:19:25;9.60;99.90
31967;DHT22;18496;52.042;6.812;2023-04-25T02:21:29;9.60;99.90
31967;DHT22;18496;52.042;6.812;2023-04-25T02:23:34;9.50;99.90
31967;DHT22;18496;52.042;6.812;2023-04-25T02:25:38;9.50;99.90
31967;DHT22;18496;52.042;6.812;2023-04-25T02:27:42;9.50;99.90
31967;DHT22;18496;52.042;6.812;2023-04-25T02:29:46;9.50;99.90
31967;DHT22;18496;52.042;6.812;2023-04-25T02:31:50;9.50;99.90
31967;DHT22;18496;52.042;6.812;2023-04-25T02:33:54;9.50;99.90
31967;DHT22;18496;52.042;6.812;2023-04-25T02:35:58;9.60;99.90
31967;DHT22;18496;52.042;6.812;2023-04-25T02:38:01;9.50;99.90
31967;DHT22;18496;52.042;6.812;2023-04-25T02:40:06;9.50;99.90
31967;DHT22;18496;52.042;6.812;2023-04-25T02:42:10;9.40;99.90
31967;DHT22;18496;52.042;6.812;2023-04-25T02:44:14;9.40;99.90
31967;DHT22;18496;52.042;6.812;2023-04-25T02:46:17;9.40;99.90
31967;DHT22;18496;52.042;6.812;2023-04-25T02:48:23;9.40;99.90
31967;DHT22;18496;52.042;6.812;2023-04-25T02:50:27;9.40;99.90
31967;DHT22;18496;52.042;6.812;2023-04-25T02:52:31;9.40;99.90
31967;DHT22;18496;52.042;6.812;2023-04-25T02:54:42;9.40;99.90
31967;DHT22;18496;52.042;6.812;2023-04-25T02:56:46;9.30;99.90
31967;DHT22;18496;52.042;6.812;2023-04-25T02:58:56;9.30;99.90
31967;DHT22;18496;52.042;6.812;2023-04-25T03:01:00;9.30;99.90
31967;DHT22;18496;52.042;6.812;2023-04-25T03:03:04;9.30;99.90
31967;DHT22;18496;52.042;6.812;2023-04-25T03:05:07;9.30;99.90
31967;DHT22;18496;52.042;6.812;2023-04-25T03:07:15;9.20;99.90
31967;DHT22;18496;52.042;6.812;2023-04-25T03:09:19;9.20;99.90
31967;DHT22;18496;52.042;6.812;2023-04-25T03:11:25;9.20;99.90
31967;DHT22;18496;52.042;6.812;2023-04-25T03:13:28;9.20;99.90
31967;DHT22;18496;52.042;6.812;2023-04-25T03:15:35;9.30;99.90
31967;DHT22;18496;52.042;6.812;2023-04-25T03:17:39;9.30;99.90
31967;DHT22;18496;52.042;6.812;2023-04-25T03:19:43;9.40;99.90
31967;DHT22;18496;52.042;6.812;2023-04-25T03:21:47;9.40;99.90
31967;DHT22;18496;52.042;6.812;2023-04-25T03:23:51;9.40;99.90
31967;DHT22;18496;52.042;6.812;2023-04-25T03:25:54;9.40;99.90
31967;DHT22;18496;52.042;6.812;2023-04-25T03:27:58;9.40;99.90
31967;DHT22;18496;52.042;6.812;2023-04-25T03:30:02;9.40;99.90
31967;DHT22;18496;52.042;6.812;2023-04-25T03:32:07;9.30;99.90
31967;DHT22;18496;52.042;6.812;2023-04-25T03:34:10;9.30;99.90
31967;DHT22;18496;52.042;6.812;2023-04-25T03:36:14;9.30;99.90
31967;DHT22;18496;52.042;6.812;2023-04-25T03:38:18;9.30;99.90
31967;DHT22;18496;52.042;6.812;2023-04-25T03:40:22;9.30;99.90
31967;DHT22;18496;52.042;6.812;2023-04-25T03:42:45;9.30;99.90
31967;DHT22;18496;52.042;6.812;2023-04-25T03:44:50;9.20;99.90
31967;DHT22;18496;52.042;6.812;2023-04-25T03:46:55;9.20;99.90
31967;DHT22;18496;52.042;6.812;2023-04-25T03:49:01;9.30;99.90
31967;DHT22;18496;52.042;6.812;2023-04-25T03:51:18;9.30;99.90
31967;DHT22;18496;52.042;6.812;2023-04-25T03:53:22;9.30;99.90
31967;DHT22;18496;52.042;6.812;2023-04-25T03:55:46;9.30;99.90
31967;DHT22;18496;52.042;6.812;2023-04-25T03:57:50;9.30;99.90
31967;DHT22;18496;52.042;6.812;2023-04-25T03:59:54;9.30;99.90
31967;DHT22;18496;52.042;6.812;2023-04-25T04:01:59;9.30;99.90
31967;DHT22;18496;52.042;6.812;2023-04-25T04:04:03;9.30;99.90
31967;DHT22;18496;52.042;6.812;2023-04-25T04:06:07;9.30;99.90
31967;DHT22;18496;52.042;6.812;2023-04-25T04:08:16;9.20;99.90
31967;DHT22;18496;52.042;6.812;2023-04-25T04:10:20;9.20;99.90
31967;DHT22;18496;52.042;6.812;2023-04-25T04:12:23;9.20;99.90
31967;DHT22;18496;52.042;6.812;2023-04-25T04:14:30;9.20;99.90
31967;DHT22;18496;52.042;6.812;2023-04-25T04:16:34;9.20;99.90
31967;DHT22;18496;52.042;6.812;2023-04-25T04:18:38;9.20;99.90
31967;DHT22;18496;52.042;6.812;2023-04-25T04:20:42;9.20;99.90
31967;DHT22;18496;52.042;6.812;2023-04-25T04:22:46;9.20;99.90
31967;DHT22;18496;52.042;6.812;2023-04-25T04:24:52;9.20;99.90
31967;DHT22;18496;52.042;6.812;2023-04-25T04:27:01;9.20;99.90
31967;DHT22;18496;52.042;6.812;2023-04-25T04:29:17;9.20;99.90
31967;DHT22;18496;52.042;6.812;2023-04-25T04:31:35;9.20;99.90
31967;DHT22;18496;52.042;6.812;2023-04-25T04:33:39;9.20;99.90
31967;DHT22;18496;52.042;6.812;2023-04-25T04:35:45;9.30;99.90
31967;DHT22;18496;52.042;6.812;2023-04-25T04:37:51;9.30;99.90
31967;DHT22;18496;52.042;6.812;2023-04-25T04:39:56;9.30;99.90
31967;DHT22;18496;52.042;6.812;2023-04-25T04:42:04;9.30;99.90
31967;DHT22;18496;52.042;6.812;2023-04-25T04:44:30;9.30;99.90
31967;DHT22;18496;52.042;6.812;2023-04-25T04:46:51;9.20;99.90
31967;DHT22;18496;52.042;6.812;2023-04-25T04:49:10;9.20;99.90
31967;DHT22;18496;52.042;6.812;2023-04-25T04:51:30;9.30;99.90
31967;DHT22;18496;52.042;6.812;2023-04-25T04:53:48;9.30;99.90
31967;DHT22;18496;52.042;6.812;2023-04-25T04:55:58;9.20;99.90
31967;DHT22;18496;52.042;6.812;2023-04-25T04:58:14;9.20;99.90
31967;DHT22;18496;52.042;6.812;2023-04-25T05:00:47;9.20;99.90
31967;DHT22;18496;52.042;6.812;2023-04-25T05:03:09;9.10;99.90
31967;DHT22;18496;52.042;6.812;2023-04-25T05:05:27;9.20;99.90
31967;DHT22;18496;52.042;6.812;2023-04-25T05:07:57;9.10;99.90
31967;DHT22;18496;52.042;6.812;2023-04-25T05:10:23;9.10;99.90
31967;DHT22;18496;52.042;6.812;2023-04-25T05:12:44;9.10;99.90
31967;DHT22;18496;52.042;6.812;2023-04-25T05:15:01;9.10;99.90
31967;DHT22;18496;52.042;6.812;2023-04-25T05:17:07;9.00;99.90
31967;DHT22;18496;52.042;6.812;2023-04-25T05:19:31;9.00;99.90
31967;DHT22;18496;52.042;6.812;2023-04-25T05:21:52;9.00;99.90
31967;DHT22;18496;52.042;6.812;2023-04-25T05:24:07;9.00;99.90
31967;DHT22;18496;52.042;6.812;2023-04-25T05:26:31;8.90;99.90
31967;DHT22;18496;52.042;6.812;2023-04-25T05:28:44;8.90;99.90
31967;DHT22;18496;52.042;6.812;2023-04-25T05:30:57;8.90;99.90
31967;DHT22;18496;52.042;6.812;2023-04-25T05:33:07;8.90;99.90
31967;DHT22;18496;52.042;6.812;2023-04-25T05:35:10;8.90;99.90
31967;DHT22;18496;52.042;6.812;2023-04-25T05:37:20;8.80;99.90
31967;DHT22;18496;52.042;6.812;2023-04-25T05:39:38;8.80;99.90
31967;DHT22;18496;52.042;6.812;2023-04-25T05:41:52;8.70;99.90
31967;DHT22;18496;52.042;6.812;2023-04-25T05:44:14;8.70;99.90
31967;DHT22;18496;52.042;6.812;2023-04-25T05:46:26;8.70;99.90
31967;DHT22;18496;52.042;6.812;2023-04-25T05:48:46;8.60;99.90
31967;DHT22;18496;52.042;6.812;2023-04-25T05:51:12;8.60;99.90
31967;DHT22;18496;52.042;6.812;2023-04-25T05:53:15;8.70;99.90
31967;DHT22;18496;52.042;6.812;2023-04-25T05:55:20;8.70;99.90
31967;DHT22;18496;52.042;6.812;2023-04-25T05:57:25;8.70;99.90
31967;DHT22;18496;52.042;6.812;2023-04-25T05:59:30;8.70;99.90
31967;DHT22;18496;52.042;6.812;2023-04-25T06:01:34;8.70;99.90
31967;DHT22;18496;52.042;6.812;2023-04-25T06:03:38;8.70;99.90
31967;DHT22;18496;52.042;6.812;2023-04-25T06:05:42;8.70;99.90
31967;DHT22;18496;52.042;6.812;2023-04-25T06:07:46;8.70;99.90
31967;DHT22;18496;52.042;6.812;2023-04-25T06:09:50;8.70;99.90
31967;DHT22;18496;52.042;6.812;2023-04-25T06:11:54;8.70;99.90
31967;DHT22;18496;52.042;6.812;2023-04-25T06:13:58;8.80;99.90
31967;DHT22;18496;52.042;6.812;2023-04-25T06:16:02;8.80;99.90
31967;DHT22;18496;52.042;6.812;2023-04-25T06:18:06;8.90;99.90
31967;DHT22;18496;52.042;6.812;2023-04-25T06:20:11;8.90;99.90
31967;DHT22;18496;52.042;6.812;2023-04-25T06:22:16;8.90;99.90
31967;DHT22;18496;52.042;6.812;2023-04-25T06:24:20;8.90;99.90
31967;DHT22;18496;52.042;6.812;2023-04-25T06:26:23;8.90;99.90
31967;DHT22;18496;52.042;6.812;2023-04-25T06:28:27;8.90;99.90
31967;DHT22;18496;52.042;6.812;2023-04-25T06:30:31;8.90;99.90
31967;DHT22;18496;52.042;6.812;2023-04-25T06:32:40;8.90;99.90
31967;DHT22;18496;52.042;6.812;2023-04-25T06:34:44;8.80;99.90
31967;DHT22;18496;52.042;6.812;2023-04-25T06:36:49;8.80;99.90
31967;DHT22;18496;52.042;6.812;2023-04-25T06:38:53;8.90;99.90
31967;DHT22;18496;52.042;6.812;2023-04-25T06:40:57;8.90;99.90
31967;DHT22;18496;52.042;6.812;2023-04-25T06:43:02;8.90;99.90
31967;DHT22;18496;52.042;6.812;2023-04-25T06:45:24;8.90;99.90
31967;DHT22;18496;52.042;6.812;2023-04-25T06:47:30;8.90;99.90
31967;DHT22;18496;52.042;6.812;2023-04-25T06:49:33;8.90;99.90
31967;DHT22;18496;52.042;6.812;2023-04-25T06:51:38;8.90;99.90
31967;DHT22;18496;52.042;6.812;2023-04-25T06:53:42;8.80;99.90
31967;DHT22;18496;52.042;6.812;2023-04-25T06:55:50;8.80;99.90
31967;DHT22;18496;52.042;6.812;2023-04-25T06:57:57;8.80;99.90
31967;DHT22;18496;52.042;6.812;2023-04-25T07:00:23;8.80;99.90
31967;DHT22;18496;52.042;6.812;2023-04-25T07:02:27;8.90;99.90
31967;DHT22;18496;52.042;6.812;2023-04-25T07:04:31;8.80;99.90
31967;DHT22;18496;52.042;6.812;2023-04-25T07:06:36;8.80;99.90
31967;DHT22;18496;52.042;6.812;2023-04-25T07:08:45;8.80;99.90
31967;DHT22;18496;52.042;6.812;2023-04-25T07:10:49;8.80;99.90
31967;DHT22;18496;52.042;6.812;2023-04-25T07:12:53;8.80;99.90
31967;DHT22;18496;52.042;6.812;2023-04-25T07:14:57;8.80;99.90
31967;DHT22;18496;52.042;6.812;2023-04-25T07:17:01;8.80;99.90
31967;DHT22;18496;52.042;6.812;2023-04-25T07:19:07;8.90;99.90
31967;DHT22;18496;52.042;6.812;2023-04-25T07:21:11;8.90;99.90
31967;DHT22;18496;52.042;6.812;2023-04-25T07:23:15;8.90;99.90
31967;DHT22;18496;52.042;6.812;2023-04-25T07:25:20;9.00;99.90
31967;DHT22;18496;52.042;6.812;2023-04-25T07:27:24;9.00;99.90
31967;DHT22;18496;52.042;6.812;2023-04-25T07:29:33;9.00;99.90
31967;DHT22;18496;52.042;6.812;2023-04-25T07:31:40;9.00;99.90
31967;DHT22;18496;52.042;6.812;2023-04-25T07:33:44;9.00;99.90
31967;DHT22;18496;52.042;6.812;2023-04-25T07:35:52;9.00;99.90
31967;DHT22;18496;52.042;6.812;2023-04-25T07:37:56;9.00;99.90
31967;DHT22;18496;52.042;6.812;2023-04-25T07:40:03;9.10;99.90
31967;DHT22;18496;52.042;6.812;2023-04-25T07:42:07;9.20;99.90
31967;DHT22;18496;52.042;6.812;2023-04-25T07:44:12;9.20;99.90
31967;DHT22;18496;52.042;6.812;2023-04-25T07:46:15;9.20;99.90
31967;DHT22;18496;52.042;6.812;2023-04-25T07:48:20;9.20;99.90
31967;DHT22;18496;52.042;6.812;2023-04-25T07:50:24;9.20;99.90
31967;DHT22;18496;52.042;6.812;2023-04-25T07:52:28;9.20;99.90
31967;DHT22;18496;52.042;6.812;2023-04-25T07:54:39;9.30;99.90
31967;DHT22;18496;52.042;6.812;2023-04-25T07:56:51;9.30;99.90
31967;DHT22;18496;52.042;6.812;2023-04-25T07:58:54;9.30;99.90
31967;DHT22;18496;52.042;6.812;2023-04-25T08:00:59;9.30;99.90
31967;DHT22;18496;52.042;6.812;2023-04-25T08:03:21;9.30;99.90
31967;DHT22;18496;52.042;6.812;2023-04-25T08:05:25;9.40;99.90
31967;DHT22;18496;52.042;6.812;2023-04-25T08:07:37;9.40;99.90
31967;DHT22;18496;52.042;6.812;2023-04-25T08:09:42;9.40;99.90
31967;DHT22;18496;52.042;6.812;2023-04-25T08:11:53;9.50;99.90
31967;DHT22;18496;52.042;6.812;2023-04-25T08:14:03;9.50;99.90
31967;DHT22;18496;52.042;6.812;2023-04-25T08:16:06;9.60;99.90
31967;DHT22;18496;52.042;6.812;2023-04-25T08:18:12;9.60;99.90
31967;DHT22;18496;52.042;6.812;2023-04-25T08:20:16;9.70;99.90
31967;DHT22;18496;52.042;6.812;2023-04-25T08:22:20;9.70;99.90
31967;DHT22;18496;52.042;6.812;2023-04-25T08:24:30;9.70;99.90
31967;DHT22;18496;52.042;6.812;2023-04-25T08:26:35;9.70;99.90
31967;DHT22;18496;52.042;6.812;2023-04-25T08:28:40;9.80;99.90
31967;DHT22;18496;52.042;6.812;2023-04-25T08:30:44;9.80;99.90
31967;DHT22;18496;52.042;6.812;2023-04-25T08:32:51;9.80;99.90
31967;DHT22;18496;52.042;6.812;2023-04-25T08:35:13;9.80;99.90
31967;DHT22;18496;52.042;6.812;2023-04-25T08:37:16;9.80;99.90
31967;DHT22;18496;52.042;6.812;2023-04-25T08:39:31;9.90;99.90
31967;DHT22;18496;52.042;6.812;2023-04-25T08:42:12;10.00;99.90
31967;DHT22;18496;52.042;6.812;2023-04-25T08:44:16;10.00;99.90
31967;DHT22;18496;52.042;6.812;2023-04-25T08:46:20;10.00;99.90
31967;DHT22;18496;52.042;6.812;2023-04-25T08:48:52;10.10;99.90
31967;DHT22;18496;52.042;6.812;2023-04-25T08:50:56;10.10;99.90
31967;DHT22;18496;52.042;6.812;2023-04-25T08:53:04;10.10;99.90
31967;DHT22;18496;52.042;6.812;2023-04-25T08:55:12;10.10;99.90
31967;DHT22;18496;52.042;6.812;2023-04-25T08:57:17;10.00;99.90
31967;DHT22;18496;52.042;6.812;2023-04-25T08:59:22;10.00;99.90
31967;DHT22;18496;52.042;6.812;2023-04-25T09:01:26;10.10;99.90
31967;DHT22;18496;52.042;6.812;2023-04-25T09:03:31;10.10;99.90
31967;DHT22;18496;52.042;6.812;2023-04-25T09:05:35;10.10;99.90
31967;DHT22;18496;52.042;6.812;2023-04-25T09:07:39;10.10;99.90
31967;DHT22;18496;52.042;6.812;2023-04-25T09:09:43;10.00;99.90
31967;DHT22;18496;52.042;6.812;2023-04-25T09:11:47;10.00;99.90
31967;DHT22;18496;52.042;6.812;2023-04-25T09:14:13;10.10;99.90
31967;DHT22;18496;52.042;6.812;2023-04-25T09:16:29;10.10;99.90
31967;DHT22;18496;52.042;6.812;2023-04-25T09:18:55;10.10;99.90
31967;DHT22;18496;52.042;6.812;2023-04-25T09:21:08;10.10;99.90
31967;DHT22;18496;52.042;6.812;2023-04-25T09:23:12;10.10;99.90
31967;DHT22;18496;52.042;6.812;2023-04-25T09:25:15;10.10;99.90
31967;DHT22;18496;52.042;6.812;2023-04-25T09:27:22;10.20;99.90
31967;DHT22;18496;52.042;6.812;2023-04-25T09:29:58;10.20;99.90
31967;DHT22;18496;52.042;6.812;2023-04-25T09:32:21;10.20;99.90
31967;DHT22;18496;52.042;6.812;2023-04-25T09:34:27;10.20;99.90
31967;DHT22;18496;52.042;6.812;2023-04-25T09:36:34;10.20;99.90
31967;DHT22;18496;52.042;6.812;2023-04-25T09:38:59;10.10;99.90
31967;DHT22;18496;52.042;6.812;2023-04-25T09:41:07;10.00;99.90
31967;DHT22;18496;52.042;6.812;2023-04-25T09:43:20;9.90;99.90
31967;DHT22;18496;52.042;6.812;2023-04-25T09:45:26;9.90;99.90
31967;DHT22;18496;52.042;6.812;2023-04-25T09:47:37;9.90;99.90
31967;DHT22;18496;52.042;6.812;2023-04-25T09:49:43;9.90;99.90
31967;DHT22;18496;52.042;6.812;2023-04-25T09:51:56;9.90;99.90
31967;DHT22;18496;52.042;6.812;2023-04-25T09:54:03;9.90;99.90
31967;DHT22;18496;52.042;6.812;2023-04-25T09:56:13;9.80;99.90
31967;DHT22;18496;52.042;6.812;2023-04-25T09:58:18;9.80;99.90
31967;DHT22;18496;52.042;6.812;2023-04-25T10:00:22;9.90;99.90
31967;DHT22;18496;52.042;6.812;2023-04-25T10:02:27;9.90;99.90
31967;DHT22;18496;52.042;6.812;2023-04-25T10:04:35;10.00;99.90
31967;DHT22;18496;52.042;6.812;2023-04-25T10:06:43;10.00;99.90
31967;DHT22;18496;52.042;6.812;2023-04-25T10:08:51;10.00;99.90
31967;DHT22;18496;52.042;6.812;2023-04-25T10:10:55;10.00;99.90
31967;DHT22;18496;52.042;6.812;2023-04-25T10:13:00;10.00;99.90
31967;DHT22;18496;52.042;6.812;2023-04-25T10:15:04;10.10;99.90
31967;DHT22;18496;52.042;6.812;2023-04-25T10:17:10;10.10;99.90
31967;DHT22;18496;52.042;6.812;2023-04-25T10:19:14;10.10;99.90
31967;DHT22;18496;52.042;6.812;2023-04-25T10:21:20;10.20;99.90
31967;DHT22;18496;52.042;6.812;2023-04-25T10:23:25;10.30;99.90
31967;DHT22;18496;52.042;6.812;2023-04-25T10:25:29;10.50;99.90
31967;DHT22;18496;52.042;6.812;2023-04-25T10:27:34;10.60;99.90
31967;DHT22;18496;52.042;6.812;2023-04-25T10:29:38;10.70;99.90
31967;DHT22;18496;52.042;6.812;2023-04-25T10:31:45;10.80;99.90
31967;DHT22;18496;52.042;6.812;2023-04-25T10:33:50;10.90;99.90
31967;DHT22;18496;52.042;6.812;2023-04-25T10:35:58;11.00;99.90
31967;DHT22;18496;52.042;6.812;2023-04-25T10:38:08;11.00;99.90
31967;DHT22;18496;52.042;6.812;2023-04-25T10:40:12;10.90;99.90
31967;DHT22;18496;52.042;6.812;2023-04-25T10:42:17;10.80;99.90
31967;DHT22;18496;52.042;6.812;2023-04-25T10:44:21;10.80;99.90
31967;DHT22;18496;52.042;6.812;2023-04-25T10:46:26;10.70;99.90
31967;DHT22;18496;52.042;6.812;2023-04-25T10:48:30;10.60;99.90
31967;DHT22;18496;52.042;6.812;2023-04-25T10:50:39;10.40;99.90
31967;DHT22;18496;52.042;6.812;2023-04-25T10:52:43;10.30;99.90
31967;DHT22;18496;52.042;6.812;2023-04-25T10:54:55;10.30;99.90
31967;DHT22;18496;52.042;6.812;2023-04-25T10:56:59;10.30;99.90
31967;DHT22;18496;52.042;6.812;2023-04-25T10:59:16;10.30;99.90
31967;DHT22;18496;52.042;6.812;2023-04-25T11:01:21;10.30;99.90
31967;DHT22;18496;52.042;6.812;2023-04-25T11:03:25;10.40;99.90
31967;DHT22;18496;52.042;6.812;2023-04-25T11:05:32;10.40;99.90
31967;DHT22;18496;52.042;6.812;2023-04-25T11:07:49;10.40;99.90
31967;DHT22;18496;52.042;6.812;2023-04-25T11:09:54;10.40;99.90
31967;DHT22;18496;52.042;6.812;2023-04-25T11:11:58;10.40;99.90
31967;DHT22;18496;52.042;6.812;2023-04-25T11:14:03;10.50;99.90
31967;DHT22;18496;52.042;6.812;2023-04-25T11:16:10;10.60;99.90
31967;DHT22;18496;52.042;6.812;2023-04-25T11:18:16;10.70;99.90
31967;DHT22;18496;52.042;6.812;2023-04-25T11:20:21;10.70;99.90
31967;DHT22;18496;52.042;6.812;2023-04-25T11:22:26;10.80;99.90
31967;DHT22;18496;52.042;6.812;2023-04-25T11:24:32;10.80;99.90
31967;DHT22;18496;52.042;6.812;2023-04-25T11:26:37;10.90;99.90
31967;DHT22;18496;52.042;6.812;2023-04-25T11:28:45;10.90;99.90
31967;DHT22;18496;52.042;6.812;2023-04-25T11:30:49;10.90;99.90
31967;DHT22;18496;52.042;6.812;2023-04-25T11:32:53;11.10;99.90
31967;DHT22;18496;52.042;6.812;2023-04-25T11:34:57;11.10;99.90
31967;DHT22;18496;52.042;6.812;2023-04-25T11:37:02;11.30;99.90
31967;DHT22;18496;52.042;6.812;2023-04-25T11:39:06;11.40;99.90
31967;DHT22;18496;52.042;6.812;2023-04-25T11:41:10;11.60;99.90
31967;DHT22;18496;52.042;6.812;2023-04-25T11:43:14;11.70;99.90
31967;DHT22;18496;52.042;6.812;2023-04-25T11:45:19;11.80;99.90
31967;DHT22;18496;52.042;6.812;2023-04-25T11:47:30;11.90;99.90
31967;DHT22;18496;52.042;6.812;2023-04-25T11:49:34;12.10;99.90
31967;DHT22;18496;52.042;6.812;2023-04-25T11:51:43;12.20;99.90
31967;DHT22;18496;52.042;6.812;2023-04-25T11:53:47;12.30;99.90
31967;DHT22;18496;52.042;6.812;2023-04-25T11:55:51;12.30;99.90
31967;DHT22;18496;52.042;6.812;2023-04-25T11:57:55;12.30;99.90
31967;DHT22;18496;52.042;6.812;2023-04-25T12:00:10;12.20;99.90
31967;DHT22;18496;52.042;6.812;2023-04-25T12:02:25;12.20;99.90
31967;DHT22;18496;52.042;6.812;2023-04-25T12:04:30;12.20;99.90
31967;DHT22;18496;52.042;6.812;2023-04-25T12:06:39;12.10;99.90
31967;DHT22;18496;52.042;6.812;2023-04-25T12:09:19;12.00;99.30
31967;DHT22;18496;52.042;6.812;2023-04-25T12:11:24;11.90;99.90
31967;DHT22;18496;52.042;6.812;2023-04-25T12:13:28;12.00;99.90
31967;DHT22;18496;52.042;6.812;2023-04-25T12:15:33;12.00;99.70
31967;DHT22;18496;52.042;6.812;2023-04-25T12:17:38;12.10;99.90
31967;DHT22;18496;52.042;6.812;2023-04-25T12:19:42;12.20;99.90
31967;DHT22;18496;52.042;6.812;2023-04-25T12:21:48;12.40;99.90
31967;DHT22;18496;52.042;6.812;2023-04-25T12:23:52;12.50;99.30
31967;DHT22;18496;52.042;6.812;2023-04-25T12:25:57;12.60;98.30
31967;DHT22;18496;52.042;6.812;2023-04-25T12:28:23;12.60;97.70
31967;DHT22;18496;52.042;6.812;2023-04-25T12:30:27;12.60;98.10
31967;DHT22;18496;52.042;6.812;2023-04-25T12:32:31;12.60;98.30
31967;DHT22;18496;52.042;6.812;2023-04-25T12:34:35;12.70;97.90
31967;DHT22;18496;52.042;6.812;2023-04-25T12:36:39;12.70;97.30
31967;DHT22;18496;52.042;6.812;2023-04-25T12:38:43;12.70;96.80
31967;DHT22;18496;52.042;6.812;2023-04-25T12:40:46;12.70;98.20
31967;DHT22;18496;52.042;6.812;2023-04-25T12:42:50;12.70;97.90
31967;DHT22;18496;52.042;6.812;2023-04-25T12:44:54;12.80;95.40
31967;DHT22;18496;52.042;6.812;2023-04-25T12:46:58;12.90;96.20
31967;DHT22;18496;52.042;6.812;2023-04-25T12:49:03;13.10;95.50
31967;DHT22;18496;52.042;6.812;2023-04-25T12:51:07;13.30;94.20
31967;DHT22;18496;52.042;6.812;2023-04-25T12:53:11;13.40;92.70
31967;DHT22;18496;52.042;6.812;2023-04-25T12:55:15;13.40;92.50
31967;DHT22;18496;52.042;6.812;2023-04-25T12:57:19;13.40;93.20
31967;DHT22;18496;52.042;6.812;2023-04-25T12:59:22;13.30;94.70
31967;DHT22;18496;52.042;6.812;2023-04-25T13:01:26;13.30;95.90
31967;DHT22;18496;52.042;6.812;2023-04-25T13:03:30;13.30;96.50
31967;DHT22;18496;52.042;6.812;2023-04-25T13:05:33;13.20;96.90
31967;DHT22;18496;52.042;6.812;2023-04-25T13:07:37;13.10;96.90
31967;DHT22;18496;52.042;6.812;2023-04-25T13:09:40;12.90;97.30
31967;DHT22;18496;52.042;6.812;2023-04-25T13:11:44;12.90;98.50
31967;DHT22;18496;52.042;6.812;2023-04-25T13:13:49;13.00;99.00
31967;DHT22;18496;52.042;6.812;2023-04-25T13:15:52;13.10;99.00
31967;DHT22;18496;52.042;6.812;2023-04-25T13:17:56;13.00;96.60
31967;DHT22;18496;52.042;6.812;2023-04-25T13:20:00;13.00;96.70
31967;DHT22;18496;52.042;6.812;2023-04-25T13:22:03;13.10;96.60
31967;DHT22;18496;52.042;6.812;2023-04-25T13:24:07;13.20;96.10
31967;DHT22;18496;52.042;6.812;2023-04-25T13:26:11;13.30;95.50
31967;DHT22;18496;52.042;6.812;2023-04-25T13:28:14;13.30;94.10
31967;DHT22;18496;52.042;6.812;2023-04-25T13:30:19;13.30;94.30
31967;DHT22;18496;52.042;6.812;2023-04-25T13:32:23;13.40;94.30